Time;durP1;ratioP1;P1;durP2;ratioP2;P2;SDS_P1;SDS_P2;PMS_P1;PMS_P2;Temp;Humidity;BMP_temperature;BMP_pressure;BME280_temperature;BME280_humidity;BME280_pressure;Samples;Min_cycle;Max_cycle;Signal;HPM_P1;HPM_P2
2022/10/25 00:01:14;;;;;;;4.93;2.10;;;;;;;13.35;100.00;100361.63;5019215;28;20206;-73
2022/10/25 00:03:41;;;;;;;3.58;2.10;;;;;;;13.27;100.00;100359.34;5035858;28;20194;-72
2022/10/25 00:06:09;;;;;;;9.05;2.35;;;;;;;13.19;100.00;100353.47;5037517;28;20384;-73
2022/10/25 00:08:36;;;;;;;5.15;2.45;;;;;;;13.19;100.00;100361.59;5024421;28;20217;-74
2022/10/25 00:11:02;;;;;;;4.95;2.10;;;;;;;13.23;100.00;100357.75;5018669;28;20202;-73
2022/10/25 00:13:29;;;;;;;3.30;2.10;;;;;;;13.20;100.00;100352.50;5039372;28;20205;-74
2022/10/25 00:15:55;;;;;;;3.50;2.20;;;;;;;13.15;100.00;100352.78;5041724;28;20228;-73
2022/10/25 00:18:22;;;;;;;8.65;2.67;;;;;;;13.11;100.00;100361.16;5035749;28;20574;-74
2022/10/25 00:20:50;;;;;;;4.13;2.47;;;;;;;13.14;100.00;100364.56;5028739;28;20286;-72
2022/10/25 00:23:17;;;;;;;6.15;2.05;;;;;;;13.09;100.00;100361.25;5025660;28;20210;-72
2022/10/25 00:25:43;;;;;;;3.45;1.80;;;;;;;13.03;100.00;100360.72;5028683;28;20205;-71
2022/10/25 00:28:10;;;;;;;3.88;2.13;;;;;;;13.04;100.00;100363.31;5040461;28;20198;-72
2022/10/25 00:30:37;;;;;;;4.43;2.30;;;;;;;13.04;100.00;100366.03;5010658;28;20294;-75
2022/10/25 00:33:04;;;;;;;5.95;2.58;;;;;;;12.99;100.00;100361.84;5032015;28;20210;-73
2022/10/25 00:35:31;;;;;;;3.97;1.92;;;;;;;13.01;100.00;100371.63;5032793;28;20258;-73
2022/10/25 00:37:59;;;;;;;3.97;2.50;;;;;;;12.92;100.00;100378.41;5033144;28;20217;-73
2022/10/25 00:40:26;;;;;;;5.57;2.35;;;;;;;12.98;100.00;100379.91;5041453;28;20202;-73
2022/10/25 00:42:52;;;;;;;9.20;2.75;;;;;;;12.99;100.00;100381.63;5031230;28;20232;-73
2022/10/25 00:45:22;;;;;;;4.30;2.40;;;;;;;12.94;100.00;100383.72;5028962;28;20202;-74
2022/10/25 00:47:54;;;;;;;4.60;2.00;;;;;;;12.92;100.00;100391.06;5021828;28;20293;-73
2022/10/25 00:50:34;;;;;;;4.25;2.15;;;;;;;12.95;100.00;100393.56;5041501;28;20198;-73
2022/10/25 00:53:08;;;;;;;3.00;2.40;;;;;;;12.91;100.00;100392.88;5024082;28;20219;-75
2022/10/25 00:55:35;;;;;;;7.82;2.10;;;;;;;12.86;100.00;100397.66;5022390;28;20240;-72
2022/10/25 00:58:06;;;;;;;3.47;2.38;;;;;;;12.87;100.00;100385.91;5034664;28;20563;-73
2022/10/25 01:00:33;;;;;;;4.70;2.40;;;;;;;12.88;100.00;100393.03;5033342;28;20195;-73
2022/10/25 01:02:59;;;;;;;4.72;2.50;;;;;;;12.77;100.00;100395.44;5035090;28;20210;-74
2022/10/25 01:05:26;;;;;;;3.00;2.10;;;;;;;12.72;100.00;100393.00;5021722;28;20226;-73
2022/10/25 01:07:52;;;;;;;9.93;2.63;;;;;;;12.68;100.00;100398.66;5035083;28;20222;-73
2022/10/25 01:10:20;;;;;;;5.60;2.50;;;;;;;12.67;100.00;100392.38;5043050;28;20255;-73
2022/10/25 01:12:47;;;;;;;4.20;2.25;;;;;;;12.65;100.00;100402.41;5042665;28;20228;-73
2022/10/25 01:15:14;;;;;;;7.60;3.38;;;;;;;12.61;100.00;100400.81;5043043;28;20225;-73
2022/10/25 01:17:50;;;;;;;9.88;2.92;;;;;;;12.57;100.00;100396.53;5026492;28;20209;-74
2022/10/25 01:20:40;;;;;;;4.95;2.58;;;;;;;12.57;100.00;100401.94;5032692;28;20190;-72
2022/10/25 01:23:22;;;;;;;5.13;2.47;;;;;;;12.55;100.00;100402.97;5040012;28;20218;-76
2022/10/25 01:26:25;;;;;;;5.28;2.30;;;;;;;12.54;100.00;100394.00;5039322;28;20193;-74
2022/10/25 01:29:15;;;;;;;5.13;2.25;;;;;;;12.50;100.00;100390.63;5016400;28;20208;-74
2022/10/25 01:31:47;;;;;;;5.28;2.55;;;;;;;12.45;100.00;100395.38;5035184;28;20219;-75
2022/10/25 01:34:17;;;;;;;7.90;2.40;;;;;;;12.47;100.00;100398.00;5035404;28;20190;-72
2022/10/25 01:36:52;;;;;;;5.75;2.10;;;;;;;12.48;100.00;100402.44;5048057;28;20213;-74
2022/10/25 01:39:25;;;;;;;5.35;2.33;;;;;;;12.50;100.00;100396.00;5040477;28;20195;-73
2022/10/25 01:42:00;;;;;;;4.85;2.53;;;;;;;12.51;100.00;100395.03;5037156;28;20226;-74
2022/10/25 01:44:37;;;;;;;4.90;2.17;;;;;;;12.56;100.00;100399.34;5050899;28;20186;-74
2022/10/25 01:47:10;;;;;;;3.30;2.40;;;;;;;12.61;100.00;100400.81;5041421;28;20205;-74
2022/10/25 01:49:43;;;;;;;8.30;2.92;;;;;;;12.65;100.00;100399.69;5044654;28;20198;-74
2022/10/25 01:52:09;;;;;;;3.65;2.10;;;;;;;12.72;100.00;100400.25;5048640;28;20714;-73
2022/10/25 01:54:36;;;;;;;5.15;2.33;;;;;;;12.74;100.00;100409.16;5049112;28;20221;-73
2022/10/25 01:57:21;;;;;;;4.57;2.30;;;;;;;12.76;100.00;100409.94;5029392;28;20266;-73
2022/10/25 02:00:02;;;;;;;4.40;2.40;;;;;;;12.87;100.00;100421.03;5033753;28;20194;-73
2022/10/25 02:02:36;;;;;;;6.13;1.70;;;;;;;12.93;100.00;100419.81;5029466;28;20277;-72
2022/10/25 02:05:10;;;;;;;6.45;2.40;;;;;;;12.90;100.00;100411.88;5027971;28;20198;-73
2022/10/25 02:07:39;;;;;;;4.30;2.15;;;;;;;12.77;100.00;100410.81;5038711;28;20200;-74
2022/10/25 02:10:10;;;;;;;3.90;2.15;;;;;;;12.81;100.00;100412.38;5021083;28;20203;-74
2022/10/25 02:12:47;;;;;;;4.18;2.45;;;;;;;12.73;100.00;100405.56;5021126;28;20225;-73
2022/10/25 02:15:21;;;;;;;6.30;2.97;;;;;;;12.63;100.00;100403.44;5019473;28;20216;-73
2022/10/25 02:17:55;;;;;;;4.43;1.70;;;;;;;12.60;100.00;100403.63;5034551;28;20204;-75
2022/10/25 02:20:25;;;;;;;4.68;1.75;;;;;;;12.62;100.00;100402.59;5020409;28;20675;-74
2022/10/25 02:22:53;;;;;;;7.32;2.50;;;;;;;12.56;100.00;100412.84;5021213;28;20222;-73
2022/10/25 02:25:21;;;;;;;3.10;2.00;;;;;;;12.58;100.00;100414.50;5020518;28;20199;-74
2022/10/25 02:27:50;;;;;;;6.15;2.00;;;;;;;12.54;100.00;100418.31;5019361;28;20209;-73
2022/10/25 02:30:17;;;;;;;4.47;1.60;;;;;;;12.58;100.00;100405.53;5036716;28;20220;-73
2022/10/25 02:32:44;;;;;;;5.45;2.13;;;;;;;12.59;100.00;100412.66;5029576;28;20245;-74
2022/10/25 02:35:14;;;;;;;3.03;1.50;;;;;;;12.58;100.00;100403.69;5037538;28;20264;-74
2022/10/25 02:37:41;;;;;;;4.82;2.25;;;;;;;12.65;100.00;100409.66;5023484;28;20270;-73
2022/10/25 02:40:09;;;;;;;4.28;1.85;;;;;;;12.62;100.00;100413.38;5019048;28;20199;-73
2022/10/25 02:42:36;;;;;;;3.38;1.65;;;;;;;12.59;100.00;100404.56;5036291;28;20236;-72
2022/10/25 02:45:03;;;;;;;3.72;2.13;;;;;;;12.53;100.00;100413.88;5026866;28;20194;-74
2022/10/25 02:47:30;;;;;;;11.10;2.50;;;;;;;12.48;100.00;100407.81;5036851;28;20261;-74
2022/10/25 02:49:56;;;;;;;2.92;1.90;;;;;;;12.48;100.00;100411.44;5027041;28;20461;-73
2022/10/25 02:52:24;;;;;;;4.45;1.80;;;;;;;12.48;100.00;100415.94;5029734;28;20249;-73
2022/10/25 02:54:51;;;;;;;5.15;2.40;;;;;;;12.48;100.00;100418.63;5037938;28;20221;-73
2022/10/25 02:57:17;;;;;;;5.28;2.33;;;;;;;12.34;100.00;100405.00;5036463;28;20194;-73
2022/10/25 02:59:44;;;;;;;5.70;2.20;;;;;;;12.25;100.00;100407.22;5024587;28;20632;-73
2022/10/25 03:02:10;;;;;;;9.90;2.75;;;;;;;12.28;100.00;100412.47;5019059;28;20695;-74
2022/10/25 03:04:37;;;;;;;4.05;2.08;;;;;;;12.23;100.00;100405.56;5019628;28;20263;-74
2022/10/25 03:07:03;;;;;;;3.67;1.85;;;;;;;12.20;100.00;100406.59;5021088;28;20197;-73
2022/10/25 03:09:31;;;;;;;6.50;2.10;;;;;;;12.15;100.00;100397.00;5019367;28;20214;-73
2022/10/25 03:11:58;;;;;;;5.00;2.08;;;;;;;12.06;100.00;100409.13;5021687;28;20217;-73
2022/10/25 03:14:24;;;;;;;5.63;2.55;;;;;;;12.07;100.00;100406.38;5034564;28;20198;-73
2022/10/25 03:16:51;;;;;;;6.65;2.72;;;;;;;12.05;100.00;100407.38;5029949;28;20839;-74
2022/10/25 03:19:17;;;;;;;6.13;2.40;;;;;;;12.05;100.00;100412.78;5039608;28;20202;-74
2022/10/25 03:21:44;;;;;;;6.40;2.25;;;;;;;12.08;100.00;100408.09;5043415;28;20233;-73
2022/10/25 03:24:10;;;;;;;4.32;2.10;;;;;;;12.09;100.00;100414.38;5042232;28;20289;-73
2022/10/25 03:26:38;;;;;;;4.00;2.08;;;;;;;12.01;100.00;100409.38;5034977;28;20230;-75
2022/10/25 03:29:05;;;;;;;7.70;2.80;;;;;;;12.01;100.00;100411.22;5021794;28;20262;-73
2022/10/25 03:31:31;;;;;;;4.13;1.85;;;;;;;12.00;100.00;100413.00;5038194;28;20220;-74
2022/10/25 03:33:58;;;;;;;6.47;2.05;;;;;;;11.98;100.00;100408.66;5034705;28;20198;-72
2022/10/25 03:36:24;;;;;;;6.32;2.55;;;;;;;11.95;100.00;100403.41;5018873;28;20218;-73
2022/10/25 03:38:51;;;;;;;5.75;2.33;;;;;;;11.86;100.00;100402.00;5038208;28;20198;-74
2022/10/25 03:41:17;;;;;;;3.47;2.33;;;;;;;11.94;100.00;100401.66;5038503;28;20230;-74
2022/10/25 03:43:45;;;;;;;6.03;2.40;;;;;;;11.92;100.00;100412.53;5032553;28;20191;-73
2022/10/25 03:46:12;;;;;;;3.60;2.58;;;;;;;11.96;100.00;100405.16;5027331;28;20199;-74
2022/10/25 03:48:38;;;;;;;11.05;3.13;;;;;;;12.01;100.00;100416.59;5018463;28;20640;-74
2022/10/25 03:51:05;;;;;;;6.45;2.30;;;;;;;11.99;100.00;100405.88;5019612;28;20210;-74
2022/10/25 03:53:32;;;;;;;7.10;2.75;;;;;;;12.00;100.00;100413.00;5019888;28;20199;-74
2022/10/25 03:55:58;;;;;;;7.50;2.63;;;;;;;11.97;100.00;100410.47;5025938;28;20310;-74
2022/10/25 03:58:25;;;;;;;5.65;2.50;;;;;;;12.00;100.00;100404.91;5018702;28;20658;-72
2022/10/25 04:00:53;;;;;;;4.65;2.38;;;;;;;12.01;100.00;100412.06;5018310;28;20225;-73
2022/10/25 04:03:19;;;;;;;5.85;2.58;;;;;;;12.00;100.00;100412.13;5019897;28;20199;-74
2022/10/25 04:05:46;;;;;;;4.75;2.80;;;;;;;12.00;100.00;100409.44;5027057;28;20203;-75
2022/10/25 04:08:12;;;;;;;5.03;2.20;;;;;;;11.94;100.00;100415.16;5017953;28;20305;-74
2022/10/25 04:10:39;;;;;;;4.50;2.70;;;;;;;11.99;100.00;100418.50;5035854;28;20198;-74
2022/10/25 04:13:06;;;;;;;5.00;3.05;;;;;;;12.00;100.00;100422.94;5022431;28;20225;-74
2022/10/25 04:15:32;;;;;;;4.57;2.55;;;;;;;11.97;100.00;100420.41;5018535;28;20501;-72
2022/10/25 04:18:00;;;;;;;8.50;2.53;;;;;;;11.96;100.00;100426.75;5029307;28;20205;-73
2022/10/25 04:20:27;;;;;;;6.22;2.50;;;;;;;11.97;100.00;100431.19;5018054;28;20258;-73
2022/10/25 04:22:54;;;;;;;5.57;2.58;;;;;;;11.99;100.00;100422.06;5018389;28;20215;-73
2022/10/25 04:25:22;;;;;;;3.45;2.20;;;;;;;11.99;100.00;100429.31;5018288;28;20203;-74
2022/10/25 04:27:48;;;;;;;6.18;2.55;;;;;;;12.04;100.00;100438.03;4999574;28;20199;-73
2022/10/25 04:30:16;;;;;;;4.38;2.50;;;;;;;11.98;100.00;100430.25;5016990;28;20209;-75
2022/10/25 04:32:43;;;;;;;7.72;2.72;;;;;;;11.99;100.00;100432.00;5016728;28;20282;-73
2022/10/25 04:35:11;;;;;;;7.70;2.97;;;;;;;12.00;100.00;100433.72;5016855;28;20681;-73
2022/10/25 04:37:38;;;;;;;7.20;3.58;;;;;;;11.98;100.00;100432.94;5017557;28;20226;-74
2022/10/25 04:40:05;;;;;;;4.55;2.70;;;;;;;11.92;100.00;100430.53;5018405;28;20209;-73
2022/10/25 04:42:32;;;;;;;5.57;2.63;;;;;;;11.86;100.00;100429.00;5018141;28;20241;-75
2022/10/25 04:44:59;;;;;;;4.15;2.40;;;;;;;11.85;100.00;100425.44;5019568;28;20202;-74
2022/10/25 04:47:25;;;;;;;3.67;2.95;;;;;;;11.78;100.00;100426.69;5019372;28;20209;-73
2022/10/25 04:49:52;;;;;;;4.20;2.63;;;;;;;11.80;100.00;100432.91;5019217;28;20217;-74
2022/10/25 04:52:20;;;;;;;7.50;2.63;;;;;;;11.84;100.00;100430.91;5020858;28;20225;-74
2022/10/25 04:54:47;;;;;;;12.50;2.63;;;;;;;11.77;100.00;100421.38;5017381;28;20214;-73
2022/10/25 04:57:13;;;;;;;6.68;3.10;;;;;;;11.71;100.00;100418.97;5016439;28;20227;-75
2022/10/25 04:59:39;;;;;;;5.15;3.50;;;;;;;11.72;100.00;100416.22;5032745;28;20202;-73
2022/10/25 05:02:06;;;;;;;4.40;2.60;;;;;;;11.63;100.00;100413.97;5039642;28;20221;-76
2022/10/25 05:04:33;;;;;;;5.15;2.58;;;;;;;11.64;100.00;100423.78;5023106;28;20232;-73
2022/10/25 05:06:59;;;;;;;6.15;2.88;;;;;;;11.59;100.00;100421.31;5020913;28;20199;-74
2022/10/25 05:09:27;;;;;;;5.53;2.95;;;;;;;11.60;100.00;100425.78;5021468;28;20210;-72
2022/10/25 05:11:54;;;;;;;5.55;2.60;;;;;;;11.60;100.00;100428.50;5021002;28;20229;-74
2022/10/25 05:14:20;;;;;;;5.78;2.72;;;;;;;11.63;100.00;100425.63;5039878;28;20202;-74
2022/10/25 05:16:47;;;;;;;7.05;3.13;;;;;;;11.63;100.00;100422.06;5039460;28;20224;-72
2022/10/25 05:19:13;;;;;;;8.25;2.75;;;;;;;11.69;100.00;100425.34;5039153;28;20273;-73
2022/10/25 05:21:42;;;;;;;5.68;3.10;;;;;;;11.68;100.00;100428.97;5040893;28;20229;-73
2022/10/25 05:24:09;;;;;;;3.78;2.20;;;;;;;11.62;100.00;100428.38;5045270;28;20755;-74
2022/10/25 05:26:37;;;;;;;12.10;3.45;;;;;;;11.62;100.00;100436.47;5046759;28;20202;-74
2022/10/25 05:29:03;;;;;;;5.07;3.28;;;;;;;11.82;100.00;100440.91;5046791;28;20208;-74
2022/10/25 05:31:30;;;;;;;6.15;3.30;;;;;;;11.79;100.00;100450.03;5045811;28;20232;-72
2022/10/25 05:33:59;;;;;;;6.32;3.10;;;;;;;11.83;100.00;100451.63;5049159;28;20229;-72
2022/10/25 05:36:27;;;;;;;5.90;3.40;;;;;;;11.74;100.00;100437.72;5042502;28;20226;-72
2022/10/25 05:38:56;;;;;;;4.78;2.92;;;;;;;11.74;100.00;100438.59;5026884;28;20226;-72
2022/10/25 05:41:22;;;;;;;7.20;2.97;;;;;;;11.65;100.00;100439.06;5022294;28;20253;-72
2022/10/25 05:43:50;;;;;;;7.75;3.20;;;;;;;11.65;100.00;100437.22;5047048;22;20321;-73
2022/10/25 05:46:19;;;;;;;11.20;4.75;;;;;;;11.62;100.00;100447.28;5035846;28;20206;-72
2022/10/25 05:48:46;;;;;;;4.93;2.42;;;;;;;11.63;100.00;100433.72;5034559;28;20217;-74
2022/10/25 05:51:14;;;;;;;8.00;3.15;;;;;;;11.62;100.00;100441.88;5035289;28;20224;-74
2022/10/25 05:53:45;;;;;;;8.13;3.63;;;;;;;11.55;100.00;100446.69;5034594;28;20228;-73
2022/10/25 05:56:12;;;;;;;7.20;3.35;;;;;;;11.62;100.00;100437.38;5034335;28;20248;-73
2022/10/25 05:58:39;;;;;;;8.05;3.60;;;;;;;11.65;100.00;100436.34;5034232;28;20216;-73
2022/10/25 06:01:08;;;;;;;6.70;3.78;;;;;;;11.66;100.00;100438.94;5034494;28;20213;-73
2022/10/25 06:03:35;;;;;;;9.20;3.70;;;;;;;11.70;100.00;100450.47;5034138;28;20228;-73
2022/10/25 06:06:03;;;;;;;5.90;3.35;;;;;;;11.73;100.00;100457.53;5034175;28;20206;-73
2022/10/25 06:08:30;;;;;;;4.72;2.92;;;;;;;11.82;100.00;100473.28;5033696;28;20589;-72
2022/10/25 06:11:01;;;;;;;12.50;2.90;;;;;;;11.82;100.00;100474.16;5033830;28;20206;-73
2022/10/25 06:13:28;;;;;;;5.60;3.05;;;;;;;11.89;100.00;100481.03;5033360;28;20226;-74
2022/10/25 06:15:54;;;;;;;8.50;3.65;;;;;;;11.98;100.00;100492.31;5033933;28;20295;-73
2022/10/25 06:18:23;;;;;;;7.88;4.65;;;;;;;12.06;100.00;100498.22;5033487;28;20209;-73
2022/10/25 06:20:49;;;;;;;9.88;3.63;;;;;;;12.08;100.00;100497.19;5034490;28;20567;-73
2022/10/25 06:23:16;;;;;;;6.05;3.30;;;;;;;12.06;100.00;100501.78;5034714;28;20739;-74
2022/10/25 06:25:42;;;;;;;11.75;3.90;;;;;;;11.98;100.00;100493.19;5034243;28;20209;-73
2022/10/25 06:28:09;;;;;;;6.25;3.60;;;;;;;11.99;100.00;100491.38;5034387;28;20202;-73
2022/10/25 06:30:36;;;;;;;8.75;3.40;;;;;;;12.07;100.00;100510.75;5034091;28;20228;-73
2022/10/25 06:33:03;;;;;;;5.57;3.10;;;;;;;12.14;100.00;100511.31;5035614;28;20791;-73
2022/10/25 06:35:32;;;;;;;7.43;3.38;;;;;;;12.20;100.00;100514.59;5036222;28;20205;-73
2022/10/25 06:38:00;;;;;;;6.97;3.17;;;;;;;12.24;100.00;100513.50;5034543;28;20233;-73
2022/10/25 06:40:26;;;;;;;9.32;3.60;;;;;;;12.36;100.00;100521.91;5034988;28;20207;-74
2022/10/25 06:42:54;;;;;;;6.78;3.25;;;;;;;12.35;100.00;100517.47;5033279;28;20237;-73
2022/10/25 06:45:21;;;;;;;7.35;3.42;;;;;;;12.34;100.00;100513.03;5033614;28;20549;-75
2022/10/25 06:47:47;;;;;;;5.65;3.50;;;;;;;12.37;100.00;100526.34;5033434;28;20439;-74
2022/10/25 06:50:14;;;;;;;6.95;3.10;;;;;;;12.46;100.00;100529.47;5034772;28;20204;-74
2022/10/25 06:52:42;;;;;;;4.95;3.22;;;;;;;12.46;100.00;100532.19;5038971;28;20285;-73
2022/10/25 06:55:09;;;;;;;5.32;3.05;;;;;;;12.38;100.00;100534.38;5038815;28;20210;-74
2022/10/25 06:57:35;;;;;;;6.72;3.10;;;;;;;12.40;100.00;100542.44;5036178;28;20228;-75
2022/10/25 07:00:02;;;;;;;7.22;3.35;;;;;;;12.53;100.00;100543.56;5034619;28;20630;-73
2022/10/25 07:02:28;;;;;;;7.32;3.50;;;;;;;12.55;100.00;100552.44;5034323;28;20237;-73
2022/10/25 07:04:55;;;;;;;5.50;3.10;;;;;;;12.59;100.00;100548.63;5034753;28;20214;-74
2022/10/25 07:07:22;;;;;;;8.05;3.03;;;;;;;12.59;100.00;100555.84;5038117;28;20579;-74
2022/10/25 07:09:49;;;;;;;7.40;3.55;;;;;;;12.66;100.00;100557.28;5037240;28;20582;-74
2022/10/25 07:12:16;;;;;;;8.73;3.15;;;;;;;12.91;100.00;100557.78;5038890;28;20218;-73
2022/10/25 07:14:42;;;;;;;10.52;3.20;;;;;;;13.06;100.00;100568.72;5036297;28;20296;-74
2022/10/25 07:17:09;;;;;;;5.60;3.38;;;;;;;13.08;100.00;100566.81;5036456;28;20232;-72
2022/10/25 07:19:36;;;;;;;8.35;3.22;;;;;;;13.05;100.00;100578.66;5036008;28;20210;-73
2022/10/25 07:22:02;;;;;;;9.40;3.03;;;;;;;13.20;100.00;100581.50;5035322;28;20226;-73
2022/10/25 07:24:28;;;;;;;7.10;3.20;;;;;;;13.71;100.00;100575.13;5035392;28;20231;-74
2022/10/25 07:26:56;;;;;;;7.68;3.05;;;;;;;13.71;100.00;100574.25;5035742;28;20206;-72
2022/10/25 07:29:23;;;;;;;10.48;2.85;;;;;;;13.88;100.00;100573.28;5035402;28;20206;-73
2022/10/25 07:31:49;;;;;;;9.07;3.03;;;;;;;13.75;100.00;100576.69;5036191;28;20650;-73
2022/10/25 07:34:16;;;;;;;6.45;3.17;;;;;;;13.55;100.00;100577.81;5034716;28;20198;-73
2022/10/25 07:36:42;;;;;;;7.10;3.45;;;;;;;13.66;100.00;100577.22;5034964;28;20238;-74
2022/10/25 07:39:09;;;;;;;5.15;2.95;;;;;;;13.95;100.00;100581.00;5035148;28;20202;-74
2022/10/25 07:41:35;;;;;;;8.05;3.60;;;;;;;13.93;100.00;100582.91;5035967;28;20228;-72
2022/10/25 07:44:04;;;;;;;6.40;3.50;;;;;;;13.86;100.00;100600.47;5034440;28;20210;-74
2022/10/25 07:46:30;;;;;;;5.43;3.03;;;;;;;13.80;100.00;100597.22;5033302;28;20285;-73
2022/10/25 07:48:57;;;;;;;5.95;3.38;;;;;;;13.82;100.00;100607.00;5033694;28;20206;-74
2022/10/25 07:51:23;;;;;;;8.25;3.20;;;;;;;13.76;100.00;100602.81;5033947;28;20197;-74
2022/10/25 07:53:50;;;;;;;6.53;3.80;;;;;;;14.28;100.00;100612.53;5031791;28;20248;-72
2022/10/25 07:56:19;;;;;;;10.27;4.32;;;;;;;15.51;100.00;100580.78;5035032;28;20269;-72
2022/10/25 07:58:45;;;;;;;7.78;3.22;;;;;;;16.42;100.00;100581.22;5046272;28;20201;-72
2022/10/25 08:01:19;;;;;;;7.22;3.75;;;;;;;17.00;100.00;100572.81;5042102;28;20202;-73
2022/10/25 08:03:45;;;;;;;11.20;3.45;;;;;;;17.07;100.00;100579.56;5035079;28;20255;-71
2022/10/25 08:06:12;;;;;;;9.05;4.07;;;;;;;15.82;100.00;100587.84;5033117;28;20314;-73
2022/10/25 08:08:38;;;;;;;6.97;3.50;;;;;;;15.20;100.00;100592.66;5032966;28;20202;-74
2022/10/25 08:11:06;;;;;;;6.40;3.65;;;;;;;14.77;100.00;100598.84;5032717;28;20590;-73
2022/10/25 08:13:34;;;;;;;5.88;3.47;;;;;;;14.55;100.00;100609.22;5032092;28;20225;-73
2022/10/25 08:16:00;;;;;;;9.27;4.60;;;;;;;14.37;100.00;100603.00;5033509;28;20634;-73
2022/10/25 08:18:28;;;;;;;6.20;3.50;;;;;;;14.51;100.00;100603.06;5032304;28;20222;-73
2022/10/25 08:20:55;;;;;;;7.13;4.38;;;;;;;14.52;100.00;100610.25;5031206;28;20206;-72
2022/10/25 08:23:22;;;;;;;8.10;4.20;;;;;;;14.35;100.00;100615.75;5032004;28;20256;-73
2022/10/25 08:25:49;;;;;;;6.97;3.60;;;;;;;14.56;100.00;100608.25;5032256;28;20198;-73
2022/10/25 08:28:15;;;;;;;9.55;4.50;;;;;;;14.79;100.00;100605.06;5031435;28;20206;-71
2022/10/25 08:30:42;;;;;;;5.60;3.28;;;;;;;14.62;100.00;100605.19;5031913;28;20675;-73
2022/10/25 08:33:09;;;;;;;9.20;3.80;;;;;;;14.59;100.00;100602.66;5032365;28;20313;-73
2022/10/25 08:35:36;;;;;;;8.30;4.35;;;;;;;14.52;100.00;100606.66;5034716;28;20210;-73
2022/10/25 08:38:04;;;;;;;9.38;4.07;;;;;;;14.67;100.00;100613.03;5053804;28;20217;-73
2022/10/25 08:40:40;;;;;;;6.10;3.60;;;;;;;14.83;100.00;100611.16;5055499;28;20202;-72
2022/10/25 08:43:19;;;;;;;7.65;3.85;;;;;;;14.80;100.00;100614.94;5055676;28;20239;-73
2022/10/25 08:45:55;;;;;;;10.32;4.55;;;;;;;14.85;100.00;100627.34;5055767;28;20196;-73
2022/10/25 08:48:27;;;;;;;9.52;3.85;;;;;;;14.94;100.00;100613.22;5055431;28;20203;-73
2022/10/25 08:51:00;;;;;;;7.22;4.28;;;;;;;15.05;100.00;100616.16;5056013;28;20556;-73
2022/10/25 08:53:32;;;;;;;8.85;4.20;;;;;;;15.13;100.00;100616.59;5055825;28;20235;-73
2022/10/25 08:55:59;;;;;;;9.25;3.97;;;;;;;15.12;100.00;100614.81;5055599;28;20567;-74
2022/10/25 08:58:31;;;;;;;8.07;4.20;;;;;;;15.17;100.00;100615.44;5054874;28;20221;-73
2022/10/25 09:01:01;;;;;;;9.90;4.30;;;;;;;15.37;100.00;100613.31;5055753;28;20201;-73
2022/10/25 09:03:27;;;;;;;6.80;3.83;;;;;;;15.56;100.00;100610.34;5056007;28;20217;-73
2022/10/25 09:06:09;;;;;;;7.03;3.50;;;;;;;15.92;100.00;100606.25;5054574;28;20201;-73
2022/10/25 09:08:51;;;;;;;9.57;3.20;;;;;;;16.24;100.00;100609.63;5054756;28;20197;-72
2022/10/25 09:11:31;;;;;;;6.13;3.05;;;;;;;16.40;100.00;100604.03;5054913;28;20204;-73
2022/10/25 09:14:05;;;;;;;9.63;3.58;;;;;;;16.52;100.00;100605.94;5036161;28;20209;-73
2022/10/25 09:16:37;;;;;;;10.25;3.75;;;;;;;16.66;100.00;100595.03;5035056;28;20189;-74
2022/10/25 09:19:13;;;;;;;9.13;3.60;;;;;;;16.28;100.00;100611.19;5041127;28;20560;-74
2022/10/25 09:21:48;;;;;;;6.30;3.80;;;;;;;16.39;100.00;100603.19;5047325;28;20208;-73
2022/10/25 09:24:21;;;;;;;7.40;3.40;;;;;;;16.67;100.00;100602.19;5047008;28;20189;-72
2022/10/25 09:26:59;;;;;;;8.57;3.50;;;;;;;17.07;100.00;100602.22;5045490;28;20186;-73
2022/10/25 09:29:30;;;;;;;6.78;3.60;;;;;;;17.78;100.00;100601.78;5041627;28;20193;-73
2022/10/25 09:31:58;;;;;;;6.38;3.13;;;;;;;17.89;100.00;100599.19;5035021;28;20385;-72
2022/10/25 09:34:29;;;;;;;8.02;3.22;;;;;;;17.91;100.00;100602.69;5034003;28;20212;-73
2022/10/25 09:37:03;;;;;;;6.70;3.10;;;;;;;18.29;100.00;100607.13;5042284;28;20267;-73
2022/10/25 09:39:37;;;;;;;5.57;3.22;;;;;;;17.90;100.00;100611.81;5054047;28;20192;-72
2022/10/25 09:42:06;;;;;;;9.07;3.90;;;;;;;17.45;100.00;100611.38;5054052;28;20237;-74
2022/10/25 09:44:39;;;;;;;6.57;3.53;;;;;;;17.45;100.00;100616.81;5054132;28;20213;-73
2022/10/25 09:47:26;;;;;;;12.55;3.80;;;;;;;17.60;100.00;100615.75;5053932;28;20532;-73
2022/10/25 09:49:58;;;;;;;6.57;3.10;;;;;;;17.13;100.00;100597.31;5053820;28;20195;-73
2022/10/25 09:52:34;;;;;;;8.15;3.35;;;;;;;16.96;100.00;100606.63;5053882;28;20632;-73
2022/10/25 09:55:22;;;;;;;8.98;3.92;;;;;;;16.90;100.00;100610.66;5054494;28;20321;-73
2022/10/25 09:57:48;;;;;;;8.88;3.42;;;;;;;16.97;100.00;100616.56;5053536;28;20217;-73
2022/10/25 10:00:16;;;;;;;8.05;3.30;;;;;;;17.11;100.00;100619.19;5054247;28;20201;-73
2022/10/25 10:02:42;;;;;;;7.32;2.80;;;;;;;17.04;100.00;100605.13;5053887;28;20520;-72
2022/10/25 10:05:15;;;;;;;10.18;3.42;;;;;;;17.07;100.00;100610.38;5053877;28;20726;-73
2022/10/25 10:07:45;;;;;;;8.57;3.40;;;;;;;17.14;100.00;100609.94;5053161;28;20294;-73
2022/10/25 10:10:15;;;;;;;7.10;4.13;;;;;;;17.25;100.00;100615.50;5054707;28;20205;-73
2022/10/25 10:12:49;;;;;;;6.57;3.05;;;;;;;17.80;100.00;100614.31;5054164;28;20227;-74
2022/10/25 10:15:21;;;;;;;5.55;2.83;;;;;;;18.26;100.00;100613.69;5053665;28;20661;-74
2022/10/25 10:17:47;;;;;;;4.53;3.17;;;;;;;18.21;100.00;100602.28;5053275;28;20217;-73
2022/10/25 10:20:16;;;;;;;5.97;2.72;;;;;;;18.18;100.00;100617.97;5054506;28;20206;-73
2022/10/25 10:22:50;;;;;;;6.63;3.27;;;;;;;18.09;100.00;100609.50;5055394;28;20221;-74
2022/10/25 10:25:21;;;;;;;8.15;3.53;;;;;;;18.44;100.00;100614.19;5054707;28;21014;-73
2022/10/25 10:27:50;;;;;;;6.45;2.92;;;;;;;18.50;100.00;100613.72;5053283;28;20259;-72
2022/10/25 10:30:23;;;;;;;6.28;2.40;;;;;;;17.91;100.00;100609.00;5053334;28;20678;-74
2022/10/25 10:32:54;;;;;;;6.35;3.53;;;;;;;17.85;100.00;100614.03;5053400;28;20637;-73
2022/10/25 10:35:32;;;;;;;4.82;2.80;;;;;;;18.07;100.00;100607.88;5053344;28;20600;-73
2022/10/25 10:38:23;;;;;;;4.90;2.45;;;;;;;18.08;100.00;100607.75;5034766;28;20675;-73
2022/10/25 10:40:50;;;;;;;8.45;4.57;;;;;;;17.94;100.00;100607.91;5033554;28;20186;-74
2022/10/25 10:43:30;;;;;;;8.43;2.78;;;;;;;18.13;100.00;100610.13;5041027;28;20243;-75
2022/10/25 10:46:02;;;;;;;5.40;2.60;;;;;;;17.81;100.00;100616.06;5045459;28;20220;-75
2022/10/25 10:48:33;;;;;;;4.57;2.25;;;;;;;17.89;100.00;100616.41;5033327;28;20186;-74
2022/10/25 10:51:00;;;;;;;3.20;2.00;;;;;;;17.88;100.00;100611.91;5033227;28;20676;-74
2022/10/25 10:53:31;;;;;;;10.60;3.20;;;;;;;17.80;100.00;100608.00;5032834;28;20232;-74
2022/10/25 10:56:00;;;;;;;7.82;2.80;;;;;;;18.02;100.00;100610.03;5032334;28;20241;-74
2022/10/25 10:58:29;;;;;;;8.48;2.38;;;;;;;18.08;100.00;100615.06;5031995;28;20226;-74
2022/10/25 11:00:57;;;;;;;7.32;3.15;;;;;;;18.44;100.00;100608.72;5035211;28;20205;-73
2022/10/25 11:03:47;;;;;;;6.90;2.50;;;;;;;19.19;100.00;100591.19;5035549;28;20233;-74
2022/10/25 11:06:18;;;;;;;4.10;2.00;;;;;;;19.54;100.00;100598.47;5037244;28;20217;-74
2022/10/25 11:08:47;;;;;;;2.63;1.40;;;;;;;19.50;100.00;100597.84;5033564;28;20440;-74
2022/10/25 11:11:17;;;;;;;2.77;1.67;;;;;;;19.17;100.00;100590.44;5031816;28;20460;-73
2022/10/25 11:13:51;;;;;;;3.30;1.60;;;;;;;20.56;100.00;100591.97;5032788;28;20468;-75
2022/10/25 11:16:44;;;;;;;3.27;1.77;;;;;;;23.29;78.01;100588.50;5033506;28;20794;-74
2022/10/25 11:19:41;;;;;;;3.50;1.37;;;;;;;24.19;69.75;100591.66;5032021;28;21009;-73
2022/10/25 11:22:22;;;;;;;3.47;1.53;;;;;;;;;;5019548;28;20471;-73
2022/10/25 11:25:02;;;;;;;5.20;1.50;;;;;;;23.87;73.64;100592.13;5030082;28;20449;-73
2022/10/25 11:27:38;;;;;;;2.87;1.27;;;;;;;24.14;66.49;100585.75;5032344;28;20436;-73